Time;durP1;ratioP1;P1;durP2;ratioP2;P2;SDS_P1;SDS_P2;PMS_P1;PMS_P2;Temp;Humidity;BMP_temperature;BMP_pressure;BME280_temperature;BME280_humidity;BME280_pressure;Samples;Min_cycle;Max_cycle;Signal;HPM_P1;HPM_P2
2021/09/13 00:02:20;;;;;;;7.97;6.53;;;;;;;-142.25;100.00;58004.16;5053083;28;20662;-58
2021/09/13 00:04:46;;;;;;;7.05;6.32;;;;;;;-142.25;100.00;58004.16;5051358;28;20029;-57
2021/09/13 00:07:11;;;;;;;6.82;6.10;;;;;;;-142.25;100.00;58004.16;5050721;28;20031;-59
2021/09/13 00:09:37;;;;;;;7.68;6.97;;;;;;;-142.25;100.00;58004.16;5050215;28;20431;-58
2021/09/13 00:12:04;;;;;;;7.47;6.28;;;;;;;-142.25;100.00;58004.16;5051103;28;20059;-58
2021/09/13 00:14:29;;;;;;;7.68;6.93;;;;;;;-142.25;100.00;58004.16;5051804;28;20453;-58
2021/09/13 00:16:55;;;;;;;7.32;6.63;;;;;;;-142.25;100.00;58004.16;5052310;28;20577;-58
2021/09/13 00:19:20;;;;;;;7.90;7.00;;;;;;;-142.25;100.00;58004.16;5049555;28;20047;-58
2021/09/13 00:21:45;;;;;;;7.53;6.88;;;;;;;-142.25;100.00;58004.16;5054429;28;20459;-57
2021/09/13 00:24:11;;;;;;;7.57;6.88;;;;;;;-142.25;100.00;58004.16;5055773;28;20075;-58
2021/09/13 00:26:36;;;;;;;8.13;7.32;;;;;;;-142.25;100.00;58004.16;5053637;28;20078;-58
2021/09/13 00:29:02;;;;;;;8.10;7.40;;;;;;;-142.25;100.00;58004.16;5055607;28;20107;-58
2021/09/13 00:31:27;;;;;;;7.65;6.82;;;;;;;-142.25;100.00;58004.16;5055122;28;20032;-60
2021/09/13 00:33:53;;;;;;;7.45;6.75;;;;;;;-142.25;100.00;58004.16;5055355;28;20045;-59
2021/09/13 00:36:18;;;;;;;8.45;7.47;;;;;;;-142.25;100.00;58004.16;5055079;28;20464;-58
2021/09/13 00:38:43;;;;;;;6.95;6.30;;;;;;;-142.25;100.00;58004.16;5056896;28;20090;-57
2021/09/13 00:41:09;;;;;;;8.32;7.53;;;;;;;-142.25;100.00;58004.16;5056498;28;20045;-60
2021/09/13 00:43:34;;;;;;;7.63;6.70;;;;;;;-142.25;100.00;58004.16;5054027;28;20143;-60
2021/09/13 00:46:00;;;;;;;7.68;6.97;;;;;;;-142.25;100.00;58004.16;5055353;28;20083;-55
2021/09/13 00:48:25;;;;;;;6.45;5.85;;;;;;;-142.25;100.00;58004.16;5054745;28;20548;-55
2021/09/13 00:50:51;;;;;;;6.38;5.88;;;;;;;-142.25;100.00;58004.16;5053779;28;20111;-55
2021/09/13 00:53:17;;;;;;;7.28;6.63;;;;;;;-142.25;100.00;58004.16;5054393;28;20037;-56
2021/09/13 00:55:42;;;;;;;7.05;6.45;;;;;;;-142.25;100.00;58004.16;5054549;28;20033;-59
2021/09/13 00:58:08;;;;;;;6.72;6.13;;;;;;;-142.25;100.00;58004.16;5056528;28;20028;-59
2021/09/13 01:00:38;;;;;;;6.90;6.30;;;;;;;-142.25;100.00;58004.16;5053960;28;20052;-59
2021/09/13 01:03:04;;;;;;;7.07;6.57;;;;;;;-142.25;100.00;58004.16;5054458;28;20032;-60
2021/09/13 01:05:29;;;;;;;6.97;6.38;;;;;;;-142.25;100.00;58004.16;5054129;28;20098;-60
2021/09/13 01:07:55;;;;;;;6.47;5.88;;;;;;;-142.25;100.00;58004.16;5053479;28;20140;-58
2021/09/13 01:10:21;;;;;;;6.35;5.75;;;;;;;-142.25;100.00;58004.16;5056388;28;20438;-60
2021/09/13 01:12:47;;;;;;;6.53;5.95;;;;;;;-142.25;100.00;58004.16;5056981;28;20028;-58
2021/09/13 01:15:13;;;;;;;6.38;5.82;;;;;;;-142.25;100.00;58004.16;5052855;28;20503;-59
2021/09/13 01:17:39;;;;;;;6.78;6.18;;;;;;;-142.25;100.00;58004.16;5057334;28;20070;-60
2021/09/13 01:20:05;;;;;;;6.93;6.15;;;;;;;-142.25;100.00;58004.16;5054640;28;20024;-60
2021/09/13 01:22:33;;;;;;;6.47;5.97;;;;;;;-142.25;100.00;58004.16;5054473;28;20047;-58
2021/09/13 01:24:58;;;;;;;7.10;6.50;;;;;;;-142.25;100.00;58004.16;5054415;28;20051;-57
2021/09/13 01:27:24;;;;;;;7.28;6.68;;;;;;;-142.25;100.00;58004.16;5052804;28;20032;-61
2021/09/13 01:29:50;;;;;;;5.85;5.43;;;;;;;-142.25;100.00;58004.16;5052358;28;20024;-60
2021/09/13 01:32:15;;;;;;;8.70;7.93;;;;;;;-142.25;100.00;58004.16;5054759;28;20036;-59
2021/09/13 01:34:41;;;;;;;7.00;6.40;;;;;;;-142.25;100.00;58004.16;5054525;28;20041;-59
2021/09/13 01:37:06;;;;;;;6.45;5.85;;;;;;;-142.25;100.00;58004.16;5053130;28;20040;-59
2021/09/13 01:39:32;;;;;;;6.88;6.28;;;;;;;-142.25;100.00;58004.16;5054605;28;20048;-59
2021/09/13 01:41:57;;;;;;;6.20;5.72;;;;;;;-142.25;100.00;58004.16;5054036;28;20031;-59
2021/09/13 01:44:22;;;;;;;7.57;6.55;;;;;;;-142.25;100.00;58004.16;5053903;28;20041;-57
2021/09/13 01:46:48;;;;;;;7.22;6.53;;;;;;;-142.25;100.00;58004.16;5053101;28;20376;-58
2021/09/13 01:49:13;;;;;;;7.40;6.75;;;;;;;-142.25;100.00;58004.16;5054112;28;20033;-58
2021/09/13 01:51:40;;;;;;;6.15;5.72;;;;;;;-142.25;100.00;58004.16;5055746;28;20044;-57
2021/09/13 01:54:06;;;;;;;6.68;6.13;;;;;;;-142.25;100.00;58004.16;5053315;28;20037;-60
2021/09/13 01:56:33;;;;;;;7.28;6.43;;;;;;;-142.25;100.00;58004.16;5053262;28;20043;-60
2021/09/13 01:58:58;;;;;;;6.65;5.93;;;;;;;-142.25;100.00;58004.16;5053930;28;20048;-61
2021/09/13 02:01:24;;;;;;;5.82;5.30;;;;;;;-142.25;100.00;58004.16;5054181;28;20021;-58
2021/09/13 02:03:50;;;;;;;6.57;5.97;;;;;;;-142.25;100.00;58004.16;5052541;28;20463;-58
2021/09/13 02:06:16;;;;;;;6.80;6.20;;;;;;;-142.25;100.00;58004.16;5050607;28;20127;-60
2021/09/13 02:08:42;;;;;;;7.35;6.20;;;;;;;-142.25;100.00;58004.16;5055620;28;20032;-59
2021/09/13 02:11:08;;;;;;;6.43;5.82;;;;;;;-142.25;100.00;58004.16;5054546;28;20477;-60
2021/09/13 02:13:33;;;;;;;5.97;5.35;;;;;;;-142.25;100.00;58004.16;5055677;28;20086;-58
2021/09/13 02:15:59;;;;;;;6.68;6.07;;;;;;;-142.25;100.00;58004.16;5053196;28;20481;-58
2021/09/13 02:18:25;;;;;;;6.38;5.88;;;;;;;-142.25;100.00;58004.16;5062378;28;20473;-60
2021/09/13 02:20:51;;;;;;;6.70;6.10;;;;;;;-142.25;100.00;58004.16;5052455;28;20560;-60
2021/09/13 02:23:16;;;;;;;7.03;6.43;;;;;;;-142.25;100.00;58004.16;5051877;28;20037;-60
2021/09/13 02:25:42;;;;;;;6.57;5.97;;;;;;;-142.25;100.00;58004.16;5051880;28;20044;-61
2021/09/13 02:28:07;;;;;;;6.80;6.20;;;;;;;-142.25;100.00;58004.16;5050548;28;20031;-58
2021/09/13 02:30:33;;;;;;;6.75;6.22;;;;;;;-142.25;100.00;58004.16;5055308;28;20081;-61
2021/09/13 02:32:58;;;;;;;7.82;7.13;;;;;;;-142.25;100.00;58004.16;5052751;28;20055;-60
2021/09/13 02:35:23;;;;;;;7.38;6.75;;;;;;;-142.25;100.00;58004.16;5053098;28;20071;-56
2021/09/13 02:37:49;;;;;;;8.23;7.30;;;;;;;-142.25;100.00;58004.16;5053890;28;20048;-59
2021/09/13 02:40:14;;;;;;;7.20;6.60;;;;;;;-142.25;100.00;58004.16;5052089;28;20405;-62
2021/09/13 02:42:40;;;;;;;9.02;7.13;;;;;;;-142.25;100.00;58004.16;5053281;28;20063;-56
2021/09/13 02:45:06;;;;;;;7.78;7.07;;;;;;;-142.25;100.00;58004.16;5052090;28;20052;-59
2021/09/13 02:47:32;;;;;;;7.55;6.75;;;;;;;-142.25;100.00;58004.16;5055051;28;20032;-60
2021/09/13 02:49:57;;;;;;;6.47;5.88;;;;;;;-142.25;100.00;58004.16;5052562;28;20060;-61
2021/09/13 02:52:23;;;;;;;7.60;6.68;;;;;;;-142.25;100.00;58004.16;5086387;28;20024;-62
2021/09/13 02:54:48;;;;;;;8.52;7.80;;;;;;;-142.25;100.00;58004.16;5053630;28;20036;-61
2021/09/13 02:57:14;;;;;;;6.72;6.13;;;;;;;-142.25;100.00;58004.16;5049678;28;20036;-58
2021/09/13 02:59:39;;;;;;;7.13;6.43;;;;;;;-142.25;100.00;58004.16;5052759;28;20108;-62
2021/09/13 03:02:05;;;;;;;7.53;6.82;;;;;;;-142.25;100.00;58004.16;5051515;28;20037;-58
2021/09/13 03:04:30;;;;;;;7.50;6.80;;;;;;;-142.25;100.00;58004.16;5053389;28;20033;-57
2021/09/13 03:06:56;;;;;;;7.90;7.10;;;;;;;-142.25;100.00;58004.16;5053048;28;20068;-58
2021/09/13 03:09:21;;;;;;;7.07;6.38;;;;;;;-142.25;100.00;58004.16;5054391;28;20389;-56
2021/09/13 03:11:47;;;;;;;6.57;5.97;;;;;;;-142.25;100.00;58004.16;5053781;28;20180;-60
2021/09/13 03:14:12;;;;;;;7.65;6.85;;;;;;;-142.25;100.00;58004.16;5052870;28;20052;-58
2021/09/13 03:16:38;;;;;;;7.20;6.50;;;;;;;-142.25;100.00;58004.16;5052134;28;20033;-57
2021/09/13 03:19:03;;;;;;;6.28;5.75;;;;;;;-142.25;100.00;58004.16;5052964;28;20016;-63
2021/09/13 03:21:28;;;;;;;6.80;6.25;;;;;;;-142.25;100.00;58004.16;5053368;28;20040;-59
2021/09/13 03:23:54;;;;;;;7.20;6.50;;;;;;;-142.25;100.00;58004.16;5054408;28;20067;-58
2021/09/13 03:26:19;;;;;;;6.50;5.90;;;;;;;-142.25;100.00;58004.16;5059488;28;20036;-60
2021/09/13 03:28:45;;;;;;;7.35;6.70;;;;;;;-142.25;100.00;58004.16;5065156;28;20139;-54
2021/09/13 03:31:10;;;;;;;7.55;6.70;;;;;;;-142.25;100.00;58004.16;5052923;28;20033;-59
2021/09/13 03:33:36;;;;;;;6.95;6.35;;;;;;;-142.25;100.00;58004.16;5052877;28;20114;-60
2021/09/13 03:36:02;;;;;;;7.25;6.60;;;;;;;-142.25;100.00;58004.16;5052496;28;20043;-61
2021/09/13 03:38:28;;;;;;;7.55;6.85;;;;;;;-142.25;100.00;58004.16;5051303;28;20379;-61
2021/09/13 03:40:53;;;;;;;6.85;6.25;;;;;;;-142.25;100.00;58004.16;5051454;28;20029;-61
2021/09/13 03:43:19;;;;;;;7.25;6.35;;;;;;;-142.25;100.00;58004.16;5052039;28;20074;-61
2021/09/13 03:45:44;;;;;;;8.90;7.95;;;;;;;-142.25;100.00;58004.16;5052337;28;20032;-60
2021/09/13 03:48:10;;;;;;;7.22;6.63;;;;;;;-142.25;100.00;58004.16;5051742;28;20603;-59
2021/09/13 03:50:35;;;;;;;6.50;5.90;;;;;;;-142.25;100.00;58004.16;5051741;28;20115;-58
2021/09/13 03:53:00;;;;;;;7.82;7.03;;;;;;;-142.25;100.00;58004.16;5053390;28;20044;-60
2021/09/13 03:55:26;;;;;;;7.32;6.63;;;;;;;-142.25;100.00;58004.16;5054472;28;20024;-57
2021/09/13 03:57:51;;;;;;;9.13;6.93;;;;;;;-142.25;100.00;58004.16;5054826;28;20036;-59
2021/09/13 04:00:17;;;;;;;7.20;6.60;;;;;;;-142.25;100.00;58004.16;5055118;28;20115;-59
2021/09/13 04:02:46;;;;;;;7.10;6.50;;;;;;;-142.25;100.00;58004.16;5053974;28;20087;-59
2021/09/13 04:05:16;;;;;;;6.93;6.25;;;;;;;-142.25;100.00;58004.16;5054979;28;20159;-61
2021/09/13 04:10:31;;;;;;;6.28;5.68;;;;;;;-142.25;100.00;58004.16;5056674;28;20048;-60
2021/09/13 04:12:56;;;;;;;7.47;6.15;;;;;;;-142.25;100.00;58004.16;5056319;28;20044;-60
2021/09/13 04:15:22;;;;;;;6.80;6.20;;;;;;;-142.25;100.00;58004.16;5057376;28;20542;-62
2021/09/13 04:17:47;;;;;;;7.47;6.60;;;;;;;-142.25;100.00;58004.16;5055183;28;20036;-61
2021/09/13 04:20:13;;;;;;;8.30;7.53;;;;;;;-142.25;100.00;58004.16;5055972;28;20033;-58
2021/09/13 04:22:38;;;;;;;7.45;6.85;;;;;;;-142.25;100.00;58004.16;5055765;28;20036;-60
2021/09/13 04:25:04;;;;;;;7.32;6.72;;;;;;;-142.25;100.00;58004.16;5056598;28;20037;-59
2021/09/13 04:27:31;;;;;;;6.78;6.18;;;;;;;-142.25;100.00;58004.16;5055996;28;20064;-61
2021/09/13 04:29:56;;;;;;;7.43;6.53;;;;;;;-142.25;100.00;58004.16;5054472;28;20097;-59
2021/09/13 04:32:22;;;;;;;7.53;6.82;;;;;;;-142.25;100.00;58004.16;5053919;28;20044;-60
2021/09/13 04:34:47;;;;;;;7.40;6.72;;;;;;;-142.25;100.00;58004.16;5056746;28;20455;-59
2021/09/13 04:37:13;;;;;;;7.05;6.45;;;;;;;-142.25;100.00;58004.16;5052832;28;20034;-58
2021/09/13 04:39:38;;;;;;;7.60;6.47;;;;;;;-142.25;100.00;58004.16;5054208;28;20033;-61
2021/09/13 04:42:03;;;;;;;8.43;7.63;;;;;;;-142.25;100.00;58004.16;5055916;28;20860;-61
2021/09/13 04:44:29;;;;;;;9.25;6.68;;;;;;;-142.25;100.00;58004.16;5057171;28;20551;-60
2021/09/13 04:46:54;;;;;;;7.43;6.75;;;;;;;-142.25;100.00;58004.16;5055254;28;20158;-58
2021/09/13 04:49:23;;;;;;;7.10;6.50;;;;;;;-142.25;100.00;58004.16;5056340;28;21040;-60
2021/09/13 04:51:49;;;;;;;7.22;6.53;;;;;;;-142.25;100.00;58004.16;5055313;28;20029;-60
2021/09/13 04:54:14;;;;;;;8.20;7.43;;;;;;;-142.25;100.00;58004.16;5055844;28;20036;-61
2021/09/13 04:56:39;;;;;;;7.28;6.68;;;;;;;-142.25;100.00;58004.16;5055864;28;20040;-58
2021/09/13 04:59:05;;;;;;;7.10;6.50;;;;;;;-142.25;100.00;58004.16;5056274;28;20029;-65
2021/09/13 05:01:30;;;;;;;8.05;7.32;;;;;;;-142.25;100.00;58004.16;5054459;28;20032;-60
2021/09/13 05:03:56;;;;;;;8.20;7.50;;;;;;;-142.25;100.00;58004.16;5055419;28;20045;-60
2021/09/13 05:06:21;;;;;;;8.38;7.32;;;;;;;-142.25;100.00;58004.16;5052231;28;20056;-61
2021/09/13 05:08:47;;;;;;;8.00;6.78;;;;;;;-142.25;100.00;58004.16;5055794;28;20087;-61
2021/09/13 05:11:12;;;;;;;8.05;7.25;;;;;;;-142.25;100.00;58004.16;5055247;28;20036;-60
2021/09/13 05:13:38;;;;;;;7.60;6.80;;;;;;;-142.25;100.00;58004.16;5056049;28;20060;-61
2021/09/13 05:16:04;;;;;;;8.00;7.00;;;;;;;-142.25;100.00;58004.16;5087313;28;20037;-59
2021/09/13 05:18:29;;;;;;;8.52;7.00;;;;;;;-142.25;100.00;58004.16;5054241;28;20040;-59
2021/09/13 05:20:55;;;;;;;7.88;7.10;;;;;;;-142.25;100.00;58004.16;5055970;28;20032;-61
2021/09/13 05:23:20;;;;;;;7.78;7.07;;;;;;;-142.25;100.00;58004.16;5053947;28;20039;-57
2021/09/13 05:25:45;;;;;;;7.72;6.97;;;;;;;-142.25;100.00;58004.16;5055788;28;20024;-60
2021/09/13 05:28:11;;;;;;;8.63;7.93;;;;;;;-142.25;100.00;58004.16;5053690;28;20094;-59
2021/09/13 05:30:36;;;;;;;6.90;6.20;;;;;;;-142.25;100.00;58004.16;5054471;28;20043;-57
2021/09/13 05:33:02;;;;;;;8.90;7.00;;;;;;;-142.25;100.00;58004.16;5053864;28;20039;-54
2021/09/13 05:35:27;;;;;;;6.80;6.28;;;;;;;-142.25;100.00;58004.16;5054062;28;20039;-56
2021/09/13 05:37:53;;;;;;;7.65;6.95;;;;;;;-142.25;100.00;58004.16;5054234;28;20370;-56
2021/09/13 05:40:18;;;;;;;6.75;6.15;;;;;;;-142.25;100.00;58004.16;5054992;28;20029;-57
2021/09/13 05:42:43;;;;;;;8.07;7.28;;;;;;;-142.25;100.00;58004.16;5055560;28;20033;-59
2021/09/13 05:45:09;;;;;;;6.43;5.82;;;;;;;-142.25;100.00;58004.16;5057316;28;20021;-57
2021/09/13 05:47:35;;;;;;;7.72;6.97;;;;;;;-142.25;100.00;58004.16;5056875;28;20044;-58
2021/09/13 05:50:00;;;;;;;6.80;6.22;;;;;;;-142.25;100.00;58004.16;5054187;28;20060;-59
2021/09/13 05:52:26;;;;;;;7.30;6.70;;;;;;;-142.25;100.00;58004.16;5054270;28;20419;-59
2021/09/13 05:54:52;;;;;;;7.53;6.55;;;;;;;-142.25;100.00;58004.16;5062660;28;20034;-59
2021/09/13 05:57:18;;;;;;;6.55;6.05;;;;;;;-142.25;100.00;58004.16;5054409;28;20033;-60
2021/09/13 05:59:43;;;;;;;6.95;6.30;;;;;;;-142.25;100.00;58004.16;5055737;28;20029;-59
2021/09/13 06:02:10;;;;;;;6.25;5.65;;;;;;;-142.25;100.00;58004.16;5054214;28;20075;-59
2021/09/13 06:04:36;;;;;;;6.55;5.95;;;;;;;-142.25;100.00;58004.16;5054575;28;20439;-57
2021/09/13 06:07:04;;;;;;;6.55;5.97;;;;;;;-142.25;100.00;58004.16;5054675;28;20049;-57
2021/09/13 06:09:29;;;;;;;6.97;6.40;;;;;;;-142.25;100.00;58004.16;5057475;28;20071;-58
2021/09/13 06:11:55;;;;;;;6.60;6.00;;;;;;;-142.25;100.00;58004.16;5053815;28;20119;-57
2021/09/13 06:14:20;;;;;;;6.68;6.07;;;;;;;-142.25;100.00;58004.16;5053207;28;20448;-57
2021/09/13 06:16:46;;;;;;;6.18;5.68;;;;;;;-142.25;100.00;58004.16;5053870;28;20028;-58
2021/09/13 06:19:11;;;;;;;6.68;6.00;;;;;;;-142.25;100.00;58004.16;5053783;28;20112;-59
2021/09/13 06:21:37;;;;;;;6.70;6.03;;;;;;;-142.25;100.00;58004.16;5054319;28;20445;-60
2021/09/13 06:24:03;;;;;;;7.15;6.53;;;;;;;-142.25;100.00;58004.16;5053013;28;20069;-61
2021/09/13 06:26:28;;;;;;;7.50;5.85;;;;;;;-142.25;100.00;58004.16;5054901;28;20143;-61
2021/09/13 06:28:54;;;;;;;7.65;6.82;;;;;;;-142.25;100.00;58004.16;5054542;28;20037;-63
2021/09/13 06:31:19;;;;;;;8.55;6.50;;;;;;;-142.25;100.00;58004.16;5055049;28;20029;-59
2021/09/13 06:33:45;;;;;;;8.38;6.47;;;;;;;-142.25;100.00;58004.16;5054143;28;20040;-60
2021/09/13 06:36:10;;;;;;;8.07;6.40;;;;;;;-142.25;100.00;58004.16;5055680;28;20039;-60
2021/09/13 06:38:36;;;;;;;6.68;5.95;;;;;;;-142.25;100.00;58004.16;5054681;28;20028;-57
2021/09/13 06:41:01;;;;;;;7.38;6.15;;;;;;;-142.25;100.00;58004.16;5086811;28;20025;-55
2021/09/13 06:43:28;;;;;;;6.22;5.72;;;;;;;-142.25;100.00;58004.16;5053129;28;20035;-56
2021/09/13 06:46:09;;;;;;;9.10;6.30;;;;;;;-142.25;100.00;58004.16;5053624;28;20032;-59
2021/09/13 06:48:37;;;;;;;6.90;6.38;;;;;;;-142.25;100.00;58004.16;5055971;28;20071;-59
2021/09/13 06:51:02;;;;;;;6.93;6.18;;;;;;;-142.25;100.00;58004.16;5053367;28;20396;-59
2021/09/13 06:53:28;;;;;;;6.57;5.97;;;;;;;-142.25;100.00;58004.16;5053656;28;20045;-54
2021/09/13 06:55:53;;;;;;;5.97;5.47;;;;;;;-142.25;100.00;58004.16;5053258;28;20033;-59
2021/09/13 06:58:18;;;;;;;7.30;6.70;;;;;;;-142.25;100.00;58004.16;5052956;28;20040;-58
2021/09/13 07:00:44;;;;;;;7.03;6.43;;;;;;;-142.25;100.00;58004.16;5053738;28;20029;-58
2021/09/13 07:03:09;;;;;;;6.82;6.20;;;;;;;-142.25;100.00;58004.16;5054185;28;20707;-57
2021/09/13 07:05:35;;;;;;;6.28;5.78;;;;;;;-142.25;100.00;58004.16;5053264;28;20055;-58
2021/09/13 07:08:01;;;;;;;5.60;5.10;;;;;;;-142.25;100.00;58004.16;5052705;28;20076;-57
2021/09/13 07:10:26;;;;;;;5.97;5.40;;;;;;;-142.25;100.00;58004.16;5055429;28;20122;-61
2021/09/13 07:12:53;;;;;;;6.80;5.55;;;;;;;-142.25;100.00;58004.16;5053565;28;20416;-59
2021/09/13 07:15:18;;;;;;;6.78;6.22;;;;;;;-142.25;100.00;58004.16;5053386;28;20028;-58
2021/09/13 07:17:44;;;;;;;7.38;6.68;;;;;;;-142.25;100.00;58004.16;5052830;28;20036;-57
2021/09/13 07:20:11;;;;;;;7.45;6.80;;;;;;;-142.25;100.00;58004.16;5053340;28;20119;-58
2021/09/13 07:22:36;;;;;;;7.03;5.88;;;;;;;-142.25;100.00;58004.16;5052254;28;20492;-57
2021/09/13 07:25:03;;;;;;;7.22;6.63;;;;;;;-142.25;100.00;58004.16;5052726;28;20043;-58
2021/09/13 07:27:29;;;;;;;6.00;5.40;;;;;;;-142.25;100.00;58004.16;5051156;28;20053;-61
2021/09/13 07:29:59;;;;;;;6.50;5.90;;;;;;;-142.25;100.00;58004.16;5054743;28;20036;-56
2021/09/13 07:32:24;;;;;;;7.13;6.50;;;;;;;-142.25;100.00;58004.16;5052571;28;20384;-57
2021/09/13 07:34:50;;;;;;;7.07;6.45;;;;;;;-142.25;100.00;58004.16;5052287;28;20040;-57
2021/09/13 07:37:15;;;;;;;5.88;5.38;;;;;;;-142.25;100.00;58004.16;5050847;28;20124;-57
2021/09/13 07:39:40;;;;;;;6.75;6.25;;;;;;;-142.25;100.00;58004.16;5051945;28;20037;-58
2021/09/13 07:42:06;;;;;;;7.95;6.95;;;;;;;-142.25;100.00;58004.16;5053269;28;20032;-57
2021/09/13 07:44:31;;;;;;;6.72;6.05;;;;;;;-142.25;100.00;58004.16;5051914;28;20032;-59
2021/09/13 07:46:57;;;;;;;6.95;6.30;;;;;;;-142.25;100.00;58004.16;5054345;28;20037;-60
2021/09/13 07:49:22;;;;;;;6.82;6.32;;;;;;;-142.25;100.00;58004.16;5053451;28;20534;-58
2021/09/13 07:51:48;;;;;;;8.57;6.50;;;;;;;-142.25;100.00;58004.16;5052329;28;20029;-60
2021/09/13 07:54:14;;;;;;;6.75;6.22;;;;;;;-142.25;100.00;58004.16;5052969;28;20660;-59
2021/09/13 07:56:40;;;;;;;8.60;6.68;;;;;;;-142.25;100.00;58004.16;5052041;28;20062;-59
2021/09/13 07:59:05;;;;;;;7.13;6.53;;;;;;;-142.25;100.00;58004.16;5052977;28;20064;-57
2021/09/13 08:01:31;;;;;;;6.78;6.28;;;;;;;-142.25;100.00;58004.16;5053964;28;20571;-57
2021/09/13 08:03:57;;;;;;;8.07;6.50;;;;;;;-142.25;100.00;58004.16;5051767;28;20037;-61
2021/09/13 08:06:23;;;;;;;6.25;5.65;;;;;;;-142.25;100.00;58004.16;5053125;28;20068;-67
2021/09/13 08:08:48;;;;;;;7.45;6.75;;;;;;;-142.25;100.00;58004.16;5057906;28;20448;-61
2021/09/13 08:11:14;;;;;;;7.05;6.53;;;;;;;-142.25;100.00;58004.16;5052044;28;20532;-62
2021/09/13 08:13:40;;;;;;;6.93;6.43;;;;;;;-142.25;100.00;58004.16;5052751;28;20491;-59
2021/09/13 08:16:07;;;;;;;6.43;5.93;;;;;;;-142.25;100.00;58004.16;5051761;28;20561;-60
2021/09/13 08:18:32;;;;;;;6.50;5.90;;;;;;;-142.25;100.00;58004.16;5053390;28;20025;-60
2021/09/13 08:20:58;;;;;;;6.65;5.93;;;;;;;-142.25;100.00;58004.16;5052632;28;20037;-61
2021/09/13 08:23:23;;;;;;;6.40;5.90;;;;;;;-142.25;100.00;58004.16;5051430;28;20159;-63
2021/09/13 08:25:49;;;;;;;6.45;5.95;;;;;;;-142.25;100.00;58004.16;5051430;28;20032;-61
2021/09/13 08:28:19;;;;;;;6.13;5.63;;;;;;;-142.25;100.00;58004.16;5052621;28;20040;-59
2021/09/13 08:30:45;;;;;;;6.13;5.63;;;;;;;-142.25;100.00;58004.16;5052344;28;20044;-60
2021/09/13 08:33:11;;;;;;;6.70;6.20;;;;;;;-142.25;100.00;58004.16;5050283;28;20033;-58
2021/09/13 08:35:36;;;;;;;5.22;4.88;;;;;;;-142.25;100.00;58004.16;5049834;28;20094;-59
2021/09/13 08:38:01;;;;;;;5.95;5.45;;;;;;;-142.25;100.00;58004.16;5051708;28;20609;-60
2021/09/13 08:40:27;;;;;;;6.70;5.97;;;;;;;-142.25;100.00;58004.16;5052394;28;20035;-56
2021/09/13 08:42:54;;;;;;;6.65;6.15;;;;;;;-142.25;100.00;58004.16;5053188;28;20037;-59
2021/09/13 08:45:29;;;;;;;5.60;5.22;;;;;;;-142.25;100.00;58004.16;5056949;28;20036;-57
2021/09/13 08:48:05;;;;;;;;;;;;;;;-142.25;100.00;58004.16;5054639;28;20067;-58
2021/09/13 08:52:59;;;;;;;5.20;4.82;;;;;;;-142.25;100.00;58004.16;5054982;28;20049;-55
2021/09/13 08:55:25;;;;;;;4.80;4.50;;;;;;;-142.25;100.00;58004.16;5055074;28;20032;-58
2021/09/13 08:57:52;;;;;;;5.40;5.00;;;;;;;-142.25;100.00;58004.16;5054688;28;20500;-53
2021/09/13 09:00:19;;;;;;;6.47;4.88;;;;;;;-142.25;100.00;58004.16;5056619;28;20065;-57
2021/09/13 09:02:45;;;;;;;5.38;5.07;;;;;;;-142.25;100.00;58004.16;5057395;28;20047;-60
2021/09/13 09:05:12;;;;;;;5.68;5.25;;;;;;;-142.25;100.00;58004.16;5055039;28;20450;-57
2021/09/13 09:07:51;;;;;;;5.68;5.22;;;;;;;-142.25;100.00;58004.16;5056283;28;20553;-56
2021/09/13 09:10:23;;;;;;;6.15;5.70;;;;;;;-142.25;100.00;58004.16;5054368;28;20041;-58
2021/09/13 09:13:02;;;;;;;5.88;5.40;;;;;;;-142.25;100.00;58004.16;5056298;28;20040;-57
2021/09/13 09:15:29;;;;;;;6.07;5.57;;;;;;;-142.25;100.00;58004.16;5052938;28;20063;-56
2021/09/13 09:17:57;;;;;;;5.72;5.32;;;;;;;-142.25;100.00;58004.16;5053795;28;20159;-59
2021/09/13 09:20:23;;;;;;;5.85;5.45;;;;;;;-142.25;100.00;58004.16;5053379;28;20040;-60
2021/09/13 09:23:04;;;;;;;5.68;5.28;;;;;;;-142.25;100.00;58004.16;5054205;28;20033;-57
2021/09/13 09:25:35;;;;;;;5.90;5.55;;;;;;;-142.25;100.00;58004.16;5054870;28;20036;-59
2021/09/13 09:28:04;;;;;;;5.60;5.13;;;;;;;-142.25;100.00;58004.16;5054292;28;20040;-59
2021/09/13 09:30:42;;;;;;;5.63;5.22;;;;;;;-142.25;100.00;58004.16;5053099;28;20501;-54
2021/09/13 09:33:18;;;;;;;5.47;5.15;;;;;;;-142.25;100.00;58004.16;5054651;28;20036;-59
2021/09/13 09:35:52;;;;;;;6.63;5.72;;;;;;;-142.25;100.00;58004.16;5054085;28;20500;-58
2021/09/13 09:38:38;;;;;;;5.60;5.15;;;;;;;-142.25;100.00;58004.16;5055886;28;20035;-57
2021/09/13 09:41:13;;;;;;;6.15;5.72;;;;;;;-142.25;100.00;58004.16;5055769;28;20032;-63
2021/09/13 09:43:55;;;;;;;5.70;5.30;;;;;;;-142.25;100.00;58004.16;5054477;28;20020;-58
2021/09/13 09:46:22;;;;;;;5.60;5.20;;;;;;;-142.25;100.00;58004.16;5055042;28;20112;-58
2021/09/13 09:48:48;;;;;;;5.90;5.50;;;;;;;-142.25;100.00;58004.16;5054331;28;20537;-60
2021/09/13 09:51:31;;;;;;;6.00;5.60;;;;;;;-142.25;100.00;58004.16;5054633;28;20036;-63
2021/09/13 09:53:58;;;;;;;5.70;5.13;;;;;;;-142.25;100.00;58004.16;5052682;28;20363;-57
2021/09/13 09:56:25;;;;;;;6.00;5.55;;;;;;;-142.25;100.00;58004.16;5053543;28;20107;-60
2021/09/13 09:58:59;;;;;;;7.30;6.60;;;;;;;-142.25;100.00;58004.16;5052105;28;20037;-58
2021/09/13 10:01:40;;;;;;;5.65;5.25;;;;;;;-142.25;100.00;58004.16;5051095;28;20040;-60
2021/09/13 10:04:26;;;;;;;6.20;5.68;;;;;;;-142.25;100.00;58004.16;5052254;28;20420;-61
2021/09/13 10:06:53;;;;;;;5.82;5.32;;;;;;;-142.25;100.00;58004.16;5052947;28;20052;-57
2021/09/13 10:09:20;;;;;;;5.53;5.13;;;;;;;-142.25;100.00;58004.16;5053710;28;20044;-59
2021/09/13 10:11:48;;;;;;;5.60;5.20;;;;;;;-142.25;100.00;58004.16;5052018;28;20090;-58
2021/09/13 10:14:16;;;;;;;5.60;5.22;;;;;;;-142.25;100.00;58004.16;5052928;28;20120;-56
2021/09/13 10:16:43;;;;;;;5.90;5.50;;;;;;;-142.25;100.00;58004.16;5053982;28;20037;-60
2021/09/13 10:19:10;;;;;;;5.43;5.03;;;;;;;-142.25;100.00;58004.16;5067269;28;20029;-60
2021/09/13 10:21:35;;;;;;;5.47;5.07;;;;;;;-142.25;100.00;58004.16;5055195;28;20047;-57
2021/09/13 10:24:04;;;;;;;6.07;5.68;;;;;;;-142.25;100.00;58004.16;5054068;28;20032;-59
2021/09/13 10:26:30;;;;;;;5.75;5.25;;;;;;;-142.25;100.00;58004.16;5052344;28;20656;-60
2021/09/13 10:29:17;;;;;;;5.40;5.10;;;;;;;-142.25;100.00;58004.16;5054865;28;20042;-58
2021/09/13 10:31:42;;;;;;;5.80;5.30;;;;;;;-142.25;100.00;58004.16;5052830;28;20032;-59
2021/09/13 10:34:18;;;;;;;6.28;5.47;;;;;;;-142.25;100.00;58004.16;5052408;28;20041;-59
2021/09/13 10:37:07;;;;;;;5.50;5.10;;;;;;;-142.25;100.00;58004.16;5053452;28;20488;-59
2021/09/13 10:39:52;;;;;;;6.55;5.97;;;;;;;-142.25;100.00;58004.16;5054168;28;20037;-59
2021/09/13 10:42:27;;;;;;;5.85;5.40;;;;;;;-142.25;100.00;58004.16;5051160;28;20067;-61
2021/09/13 10:45:03;;;;;;;6.35;5.95;;;;;;;-142.25;100.00;58004.16;5052317;28;20073;-59
2021/09/13 10:47:29;;;;;;;5.50;5.20;;;;;;;-142.25;100.00;58004.16;5051281;28;20056;-60
2021/09/13 10:50:20;;;;;;;5.90;5.38;;;;;;;-142.25;100.00;58004.16;5052860;28;20043;-59
2021/09/13 10:52:54;;;;;;;6.10;5.60;;;;;;;-142.25;100.00;58004.16;5051358;28;20041;-57
2021/09/13 10:55:41;;;;;;;5.80;5.40;;;;;;;-142.25;100.00;58004.16;5053727;28;20076;-58
2021/09/13 10:58:16;;;;;;;5.22;4.72;;;;;;;-142.25;100.00;58004.16;5051579;28;20586;-57
2021/09/13 11:00:44;;;;;;;5.03;4.72;;;;;;;-142.25;100.00;58004.16;5052617;28;20033;-59
2021/09/13 11:03:22;;;;;;;5.65;5.10;;;;;;;-142.25;100.00;58004.16;5050757;28;20064;-58
2021/09/13 11:06:10;;;;;;;5.15;4.85;;;;;;;-142.25;100.00;58004.16;5051020;28;20095;-56
2021/09/13 11:08:53;;;;;;;5.55;5.18;;;;;;;-142.25;100.00;58004.16;5053111;28;20032;-59
2021/09/13 11:11:29;;;;;;;4.88;4.57;;;;;;;-142.25;100.00;58004.16;5051887;28;20586;-60
2021/09/13 11:13:57;;;;;;;7.07;6.68;;;;;;;-142.25;100.00;58004.16;5051554;28;20041;-60
2021/09/13 11:16:23;;;;;;;6.65;6.15;;;;;;;-142.25;100.00;58004.16;5054118;28;20041;-58